CNW8 weather

Toronto (Hospital For Sick Children) Heliport
Toronto, Ontario, Canada

Public forecast

Using degrees Celsius for public forecast. Weather courtesy of forecast.io.

Closest aviation weather report (METAR) to Toronto (Hospital For Sick Children) Heliport

Closest report is Billy Bishop Toronto City Centre Airport, 1.8 nm (3.3 km) SSW. Retrieved 2020/05/29 07:00 UTC (41 minutes ago):

CYTZ 290700Z AUTO 23006KT 9SM CLR 16/16 A2983 RMK SLP102 DENSITY ALT 500FT

Closest aviation forecast (TAF) to Toronto (Hospital For Sick Children) Heliport

Closest forecast is Billy Bishop Toronto City Centre Airport, 1.8 nm (3.3 km) SSW. Retrieved 2020/05/29 08:00 UTC (0 seconds ago):

TAF CYTZ 290738Z 2908/3008 23006KT P6SM FEW030 FM291200 20010KT P6SM BKN040 BECMG 2912/2914 19012G22KT FM291700 21012G22KT P6SM -SHRA BKN030 TEMPO 2917/2920 4SM SHRA BR OVC020 PROB30 2917/2920 VRB15G25KT 2SM TSRA BR BKN008 BKN020CB FM292000 24012G22KT 6SM -RA BR OVC012 TEMPO 2920/2922 4SM SHRA BR OVC008 FM292200 34012G22KT 6SM BR OVC012 FM300100 28012KT P6SM BKN040 FM300700 26008KT P6SM FEW040 RMK FCST BASED ON AUTO OBS NXT FCST BY 291400Z